Indianapolis, Indiana
Current Conditions -  °F | °C
As of 6:54 PM on Wednesday 26 Nov 2014 (Local Time) from KIND Reporting Station
Overcast Overcast  
Wind Chill: 23°   Ceiling: 15000
Heat Index: 31°   Visibility: 10mi
Dew Point: 23°   Wind: 8mph
Humidity: 72%   Direction: 50°NE
Pressure: 30.05"   Gusts: NA
Location:  39.77°N, 86.15°W
Report Text: KIND 262354Z 05007KT 10SM BKN150 OVC200 M01/M05 A3005 RMK AO2 SLP183 T10061050 10011 21006 51004
Loading
Personal Weather Stations






























Interactive Weather Map New forecast layout! Learn more

10-Day Weather Forecast

Advertisements
Track Severe Weather on mobile